LZB565 LBWN-LBSF

Flight info

Callsign LZB565
Flight time 0h 34m
Altitude 30000
Route DICXA N605 GOL
Aircraft A320/M-SDE3FGHIRWY/LB1

Departure

Time 2026-05-04 20:57
Airport Varna Airport (LBWN)

Arrival

Time 2026-05-04 21:32
Airport Sofia Airport (LBSF)
Time Latitude Longitude Altitude Speed Heading
2026-05-04 20:41 43.23613 27.82527 222 ft 0 kts 64°
2026-05-04 20:52 43.23617 27.82539 223 ft 8 kts 65°
2026-05-04 20:53 43.23576 27.82582 224 ft 10 kts 140°
2026-05-04 20:53 43.23556 27.82729 223 ft 22 kts 97°
2026-05-04 20:53 43.23555 27.82948 222 ft 23 kts 86°
2026-05-04 20:53 43.23549 27.83094 222 ft 18 kts 92°
2026-05-04 20:54 43.23538 27.83273 222 ft 20 kts 103°
2026-05-04 20:54 43.23488 27.83332 222 ft 8 kts 179°
2026-05-04 20:54 43.23437 27.83329 222 ft 8 kts 186°
2026-05-04 20:54 43.23361 27.83381 223 ft 16 kts 109°
2026-05-04 20:55 43.23353 27.83537 222 ft 17 kts 95°
2026-05-04 20:55 43.23339 27.83731 222 ft 23 kts 96°
2026-05-04 20:55 43.23319 27.83959 222 ft 25 kts 102°
2026-05-04 20:55 43.23197 27.84094 223 ft 23 kts 181°
2026-05-04 20:56 43.23087 27.84025 223 ft 14 kts 219°
2026-05-04 20:56 43.23070 27.83953 222 ft 0 kts 276°
2026-05-04 20:56 43.23087 27.83764 222 ft 62 kts 277°
2026-05-04 20:56 43.23176 27.82744 225 ft 150 kts 277°
2026-05-04 20:57 43.23324 27.81176 789 ft 173 kts 278°
2026-05-04 20:57 43.23484 27.79458 1487 ft 192 kts 278°
2026-05-04 20:57 43.23655 27.77528 1965 ft 216 kts 277°
2026-05-04 20:57 43.23843 27.75364 2472 ft 241 kts 277°
2026-05-04 20:58 43.24048 27.72984 3130 ft 259 kts 278°
2026-05-04 20:58 43.24263 27.70515 4133 ft 262 kts 280°
2026-05-04 20:58 43.24481 27.68013 5181 ft 265 kts 281°
2026-05-04 20:58 43.24702 27.65485 6134 ft 270 kts 282°
2026-05-04 20:59 43.24927 27.62893 7045 ft 276 kts 283°
2026-05-04 20:59 43.25152 27.60289 7930 ft 282 kts 283°
2026-05-04 20:59 43.25387 27.57593 8835 ft 287 kts 283°
2026-05-04 20:59 43.25628 27.54844 9730 ft 293 kts 283°
2026-05-04 21:00 43.25879 27.52011 10340 ft 309 kts 283°
2026-05-04 21:00 43.26152 27.48979 10653 ft 333 kts 282°
2026-05-04 21:00 43.26440 27.45717 11012 ft 352 kts 282°
2026-05-04 21:00 43.26725 27.42338 11695 ft 360 kts 282°
2026-05-04 21:01 43.27009 27.38904 12449 ft 365 kts 281°
2026-05-04 21:01 43.27290 27.35417 13215 ft 371 kts 279°
2026-05-04 21:01 43.27265 27.31829 13948 ft 382 kts 268°
2026-05-04 21:01 43.26718 27.28224 14622 ft 391 kts 256°
2026-05-04 21:02 43.25753 27.24702 15341 ft 396 kts 251°
2026-05-04 21:02 43.24752 27.21170 16063 ft 399 kts 251°
2026-05-04 21:02 43.23748 27.17615 16751 ft 402 kts 251°
2026-05-04 21:02 43.22742 27.14032 17437 ft 405 kts 251°
2026-05-04 21:03 43.21727 27.10412 18134 ft 408 kts 251°
2026-05-04 21:03 43.20784 27.06730 18757 ft 410 kts 257°
2026-05-04 21:03 43.20258 27.02893 19367 ft 409 kts 267°
2026-05-04 21:03 43.20090 26.99002 19996 ft 410 kts 270°
2026-05-04 21:04 43.19940 26.95137 20625 ft 412 kts 270°
2026-05-04 21:04 43.19785 26.91195 21242 ft 414 kts 270°
2026-05-04 21:04 43.19629 26.87243 21842 ft 416 kts 270°
2026-05-04 21:04 43.19471 26.83260 22416 ft 419 kts 270°
2026-05-04 21:05 43.19313 26.79263 22996 ft 421 kts 270°
2026-05-04 21:05 43.19154 26.75246 23549 ft 423 kts 270°
2026-05-04 21:05 43.18992 26.71207 24012 ft 426 kts 270°
2026-05-04 21:05 43.18827 26.67146 24457 ft 428 kts 270°
2026-05-04 21:06 43.18664 26.63058 24883 ft 430 kts 270°
2026-05-04 21:06 43.18529 26.59023 25304 ft 431 kts 270°
2026-05-04 21:06 43.18416 26.54897 25722 ft 433 kts 270°
2026-05-04 21:06 43.18313 26.50764 26124 ft 435 kts 270°
2026-05-04 21:07 43.18208 26.46608 26523 ft 437 kts 270°
2026-05-04 21:07 43.18099 26.42440 26915 ft 439 kts 270°
2026-05-04 21:07 43.17982 26.38242 27298 ft 441 kts 270°
2026-05-04 21:07 43.17856 26.34029 27672 ft 443 kts 269°
2026-05-04 21:08 43.17723 26.29807 28032 ft 445 kts 269°
2026-05-04 21:08 43.17587 26.25559 28389 ft 447 kts 269°
2026-05-04 21:08 43.17451 26.21304 28724 ft 449 kts 269°
2026-05-04 21:08 43.17313 26.17025 29055 ft 450 kts 269°
2026-05-04 21:09 43.17170 26.12727 29366 ft 452 kts 269°
2026-05-04 21:09 43.17002 26.08422 29667 ft 454 kts 268°
2026-05-04 21:09 43.16813 26.04090 29947 ft 455 kts 268°
2026-05-04 21:09 43.16617 25.99825 30056 ft 452 kts 268°
2026-05-04 21:10 43.16228 25.91337 30063 ft 444 kts 268°
2026-05-04 21:10 43.15854 25.82904 30062 ft 443 kts 268°
2026-05-04 21:11 43.15473 25.74495 30060 ft 442 kts 268°
2026-05-04 21:11 43.15111 25.66088 30055 ft 442 kts 268°
2026-05-04 21:12 43.14836 25.57684 30055 ft 441 kts 269°
2026-05-04 21:12 43.14589 25.49288 30062 ft 441 kts 269°
2026-05-04 21:13 43.14308 25.40956 30070 ft 441 kts 268°
2026-05-04 21:13 43.14004 25.32519 30076 ft 441 kts 268°
2026-05-04 21:14 43.13699 25.24124 30086 ft 440 kts 268°
2026-05-04 21:14 43.13388 25.15757 30095 ft 440 kts 268°
2026-05-04 21:15 43.12454 25.07488 30096 ft 452 kts 249°
2026-05-04 21:15 43.11204 25.03540 29157 ft 450 kts 247°
2026-05-04 21:15 43.09903 24.99614 27070 ft 456 kts 246°
2026-05-04 21:16 43.08561 24.95688 25382 ft 456 kts 246°
2026-05-04 21:16 43.07210 24.91788 23959 ft 451 kts 246°
2026-05-04 21:16 43.05885 24.87965 23071 ft 434 kts 246°
2026-05-04 21:16 43.04624 24.84311 22533 ft 420 kts 246°
2026-05-04 21:17 43.03392 24.80716 21888 ft 416 kts 247°
2026-05-04 21:17 43.02172 24.77125 21285 ft 413 kts 247°
2026-05-04 21:17 43.00969 24.73580 20721 ft 410 kts 247°
2026-05-04 21:17 43.00179 24.71249 20355 ft 408 kts 246°
2026-05-04 21:18 42.98989 24.67747 19803 ft 405 kts 246°
2026-05-04 21:18 42.97800 24.64270 19271 ft 402 kts 246°
2026-05-04 21:18 42.96616 24.60821 18721 ft 400 kts 246°
2026-05-04 21:18 42.95430 24.57374 18046 ft 401 kts 246°
2026-05-04 21:19 42.94249 24.53940 17516 ft 397 kts 246°
2026-05-04 21:19 42.93085 24.50548 16984 ft 393 kts 246°
2026-05-04 21:19 42.91927 24.47182 16440 ft 390 kts 246°
2026-05-04 21:19 42.90774 24.43843 15896 ft 388 kts 246°
2026-05-04 21:20 42.89625 24.40521 15332 ft 387 kts 246°
2026-05-04 21:20 42.88481 24.37207 14778 ft 386 kts 246°
2026-05-04 21:20 42.87342 24.33900 14185 ft 386 kts 246°
2026-05-04 21:20 42.86197 24.30587 13556 ft 385 kts 246°
2026-05-04 21:21 42.85053 24.27288 12946 ft 384 kts 246°
2026-05-04 21:21 42.83914 24.24004 12324 ft 382 kts 246°
2026-05-04 21:21 42.82779 24.20740 11712 ft 380 kts 246°
2026-05-04 21:21 42.81646 24.17488 11078 ft 379 kts 246°
2026-05-04 21:22 42.80534 24.14298 10675 ft 373 kts 247°
2026-05-04 21:22 42.79440 24.11168 10534 ft 348 kts 247°
2026-05-04 21:22 42.78436 24.08317 10378 ft 322 kts 247°
2026-05-04 21:22 42.77497 24.05645 9952 ft 311 kts 247°
2026-05-04 21:23 42.76579 24.03011 9801 ft 308 kts 248°
2026-05-04 21:23 42.75672 24.00407 9660 ft 297 kts 248°
2026-05-04 21:23 42.74813 23.97948 9522 ft 277 kts 248°
2026-05-04 21:23 42.74015 23.95681 9391 ft 257 kts 248°
2026-05-04 21:24 42.73251 23.93507 9158 ft 253 kts 248°
2026-05-04 21:24 42.72500 23.91370 8839 ft 246 kts 248°
2026-05-04 21:24 42.71773 23.89302 8517 ft 238 kts 248°
2026-05-04 21:24 42.71067 23.87300 8197 ft 232 kts 248°
2026-05-04 21:25 42.70380 23.85357 7883 ft 225 kts 248°
2026-05-04 21:25 42.69711 23.83458 7575 ft 220 kts 248°
2026-05-04 21:25 42.69058 23.81602 7290 ft 217 kts 248°
2026-05-04 21:25 42.68401 23.79735 6997 ft 220 kts 248°
2026-05-04 21:26 42.67796 23.77827 6681 ft 218 kts 258°
2026-05-04 21:26 42.67595 23.75808 6363 ft 214 kts 274°
2026-05-04 21:26 42.67664 23.73797 6066 ft 213 kts 278°
2026-05-04 21:26 42.67787 23.71787 5778 ft 213 kts 278°
2026-05-04 21:27 42.67913 23.69807 5498 ft 213 kts 277°
2026-05-04 21:27 42.68039 23.67808 5217 ft 212 kts 277°
2026-05-04 21:27 42.68164 23.65828 4946 ft 211 kts 277°
2026-05-04 21:27 42.68285 23.63869 4674 ft 199 kts 276°
2026-05-04 21:28 42.68398 23.62057 4389 ft 184 kts 276°
2026-05-04 21:28 42.68498 23.60441 4176 ft 162 kts 276°
2026-05-04 21:28 42.68588 23.58995 3969 ft 147 kts 276°
2026-05-04 21:28 42.68671 23.57648 3781 ft 141 kts 276°
2026-05-04 21:29 42.68753 23.56333 3600 ft 138 kts 275°
2026-05-04 21:29 42.68833 23.55037 3414 ft 137 kts 274°
2026-05-04 21:29 42.68913 23.53745 3221 ft 137 kts 274°
2026-05-04 21:29 42.68992 23.52454 3028 ft 137 kts 274°
2026-05-04 21:30 42.69071 23.51164 2838 ft 137 kts 274°
2026-05-04 21:30 42.69150 23.49876 2652 ft 136 kts 274°
2026-05-04 21:30 42.69224 23.48592 2456 ft 136 kts 274°
2026-05-04 21:30 42.69300 23.47313 2266 ft 135 kts 275°
2026-05-04 21:31 42.69466 23.44779 1924 ft 136 kts 276°
2026-05-04 21:31 42.69539 23.43515 1751 ft 131 kts 277°
2026-05-04 21:31 42.69603 23.42499 1750 ft 84 kts 275°
2026-05-04 21:32 42.69635 23.41951 1744 ft 34 kts 275°
2026-05-04 21:32 42.69621 23.41701 1743 ft 26 kts 259°
2026-05-04 21:32 42.69553 23.41472 1748 ft 26 kts 245°
2026-05-04 21:32 42.69488 23.41271 1742 ft 23 kts 250°
2026-05-04 21:33 42.69353 23.41182 1750 ft 23 kts 192°
2026-05-04 21:33 42.69206 23.41152 1743 ft 13 kts 167°
2026-05-04 21:33 42.69137 23.41182 1750 ft 10 kts 161°
2026-05-04 21:33 42.69097 23.41211 1747 ft 3 kts 111°
2026-05-04 21:34 42.69103 23.41253 1750 ft 6 kts 73°
2026-05-04 21:34 42.69107 23.41269 1743 ft 2 kts 71°
2026-05-04 21:34 42.69110 23.41283 1746 ft 2 kts 72°
2026-05-04 21:34 42.69111 23.41287 1747 ft 0 kts 72°